createdAt,value
2019-05-25T00:03:10.917Z,15.76
2019-05-25T00:08:34.681Z,15.64
2019-05-25T00:13:59.446Z,15.56
2019-05-25T00:19:23.920Z,15.57
2019-05-25T00:24:47.961Z,15.41
2019-05-25T00:30:12.647Z,15.36
2019-05-25T00:35:36.936Z,15.23
2019-05-25T00:41:01.340Z,15.09
2019-05-25T00:46:25.117Z,14.87
2019-05-25T00:51:48.793Z,14.66
2019-05-25T00:57:13.556Z,14.49
2019-05-25T01:02:39.985Z,14.36
2019-05-25T01:08:05.015Z,14.14
2019-05-25T01:13:28.890Z,13.98
2019-05-25T01:18:52.673Z,13.83
2019-05-25T01:24:16.774Z,13.68
2019-05-25T01:29:41.294Z,13.46
2019-05-25T01:35:05.832Z,13.29
2019-05-25T01:40:31.856Z,13.14
2019-05-25T01:45:56.601Z,13.10
2019-05-25T01:51:21.752Z,12.99
2019-05-25T01:56:46.222Z,13.05
2019-05-25T02:02:10.293Z,12.89
2019-05-25T02:07:33.936Z,12.66
2019-05-25T02:12:58.148Z,12.56
2019-05-25T02:18:21.804Z,12.57
2019-05-25T02:23:45.611Z,12.46
2019-05-25T02:29:09.435Z,12.34
2019-05-25T02:34:34.158Z,12.30
2019-05-25T02:39:58.901Z,12.19
2019-05-25T02:45:23.210Z,12.14
2019-05-25T02:50:48.490Z,11.95
2019-05-25T02:56:12.224Z,11.85
2019-05-25T03:01:37.039Z,11.70
2019-05-25T03:07:02.929Z,11.77
2019-05-25T03:12:28.422Z,11.70
2019-05-25T03:17:52.152Z,11.59
2019-05-25T03:23:16.970Z,11.59
2019-05-25T03:28:41.452Z,11.53
2019-05-25T03:34:05.913Z,11.47
2019-05-25T03:39:30.573Z,11.41
2019-05-25T03:44:54.932Z,11.31
2019-05-25T03:50:19.541Z,11.29
2019-05-25T03:55:44.391Z,11.31
2019-05-25T04:01:08.225Z,11.42
2019-05-25T04:06:33.029Z,11.45
2019-05-25T04:11:57.686Z,11.68
2019-05-25T04:17:22.558Z,12.54
2019-05-25T04:22:47.519Z,13.36
2019-05-25T04:28:12.229Z,14.63
2019-05-25T04:33:36.646Z,15.12
2019-05-25T04:39:00.571Z,15.53
2019-05-25T04:44:27.204Z,15.50
2019-05-25T04:49:51.961Z,14.93
2019-05-25T04:55:17.694Z,14.65
2019-05-25T05:00:41.447Z,14.06
2019-05-25T05:06:05.965Z,13.74
2019-05-25T05:11:30.549Z,14.25
2019-05-25T05:16:55.789Z,14.30
2019-05-25T05:22:20.241Z,14.49
2019-05-25T05:27:44.160Z,14.60
2019-05-25T05:33:08.477Z,15.29
2019-05-25T05:38:34.502Z,15.31
2019-05-25T05:43:58.746Z,15.91
2019-05-25T05:49:25.490Z,15.78
2019-05-25T05:54:52.466Z,17.02
2019-05-25T06:00:18.672Z,17.94
2019-05-25T06:05:42.710Z,18.17
2019-05-25T06:11:07.707Z,18.67
2019-05-25T06:16:32.216Z,18.86
2019-05-25T06:21:56.719Z,17.83
2019-05-25T06:27:27.643Z,18.33
2019-05-25T06:32:46.855Z,17.00
2019-05-25T06:38:11.010Z,15.71
2019-05-25T06:43:35.768Z,15.43
2019-05-25T06:48:59.667Z,16.40
2019-05-25T06:54:23.330Z,16.62
2019-05-25T06:59:47.336Z,16.14
2019-05-25T07:05:12.482Z,18.08
2019-05-25T07:10:37.224Z,17.56
2019-05-25T07:16:02.493Z,18.77
2019-05-25T07:21:27.605Z,17.00
2019-05-25T07:26:52.945Z,16.51
2019-05-25T07:32:16.908Z,16.63
2019-05-25T07:37:40.670Z,16.84
2019-05-25T07:43:05.994Z,17.13
2019-05-25T07:48:30.642Z,17.44
2019-05-25T07:53:55.308Z,17.95
2019-05-25T07:59:19.431Z,18.62
2019-05-25T08:04:43.887Z,18.06
2019-05-25T08:10:08.912Z,18.49
2019-05-25T08:15:33.051Z,17.47
2019-05-25T08:20:56.705Z,18.46
2019-05-25T08:26:21.534Z,18.86
2019-05-25T08:31:46.003Z,18.70
2019-05-25T08:37:10.521Z,17.69
2019-05-25T08:42:35.025Z,17.06
2019-05-25T08:47:59.916Z,17.40
2019-05-25T08:53:39.953Z,17.44
2019-05-25T08:58:49.176Z,16.73
2019-05-25T09:04:14.237Z,16.69
2019-05-25T09:09:38.998Z,17.14
2019-05-25T09:15:05.892Z,17.27
2019-05-25T09:20:28.500Z,18.11
2019-05-25T09:25:53.100Z,17.63
2019-05-25T09:31:17.832Z,16.94
2019-05-25T09:36:41.714Z,16.34
2019-05-25T09:42:06.317Z,16.27
2019-05-25T09:47:30.913Z,16.59
2019-05-25T09:52:55.844Z,16.87
2019-05-25T09:58:20.648Z,17.06
2019-05-25T10:03:44.504Z,17.04
2019-05-25T10:09:08.797Z,17.02
2019-05-25T10:14:33.287Z,16.81
2019-05-25T10:19:57.773Z,18.15
2019-05-25T10:25:21.968Z,18.53
2019-05-25T10:30:45.997Z,18.82
2019-05-25T10:36:10.809Z,18.61
2019-05-25T10:41:35.270Z,18.14
2019-05-25T10:46:59.188Z,17.26
2019-05-25T10:52:23.915Z,17.20
2019-05-25T10:57:47.837Z,17.75
2019-05-25T11:03:11.659Z,18.51
2019-05-25T11:08:36.089Z,19.27
2019-05-25T11:14:01.109Z,18.94
2019-05-25T11:19:25.765Z,18.57
2019-05-25T11:24:49.684Z,19.34
2019-05-25T11:30:13.874Z,18.82
2019-05-25T11:35:38.323Z,18.52
2019-05-25T11:41:02.122Z,18.19
2019-05-25T11:46:26.051Z,18.54
2019-05-25T11:51:49.652Z,19.31
2019-05-25T11:57:14.065Z,18.68
2019-05-25T12:02:37.948Z,20.57
2019-05-25T12:08:02.928Z,20.28
2019-05-25T12:13:27.339Z,19.93
2019-05-25T12:18:52.006Z,19.35
2019-05-25T12:24:16.495Z,19.44
2019-05-25T12:29:40.872Z,19.72
2019-05-25T12:35:06.045Z,18.39
2019-05-25T12:40:30.609Z,18.16
2019-05-25T12:45:55.036Z,18.00
2019-05-25T12:51:19.761Z,18.77
2019-05-25T12:56:44.446Z,18.40
2019-05-25T13:02:08.318Z,18.30
2019-05-25T13:07:32.318Z,19.61
2019-05-25T13:12:57.779Z,18.77
2019-05-25T13:18:22.124Z,19.50
2019-05-25T13:23:46.591Z,21.38
2019-05-25T13:29:11.163Z,20.31
2019-05-25T13:34:35.411Z,19.77
2019-05-25T13:39:59.860Z,21.24
2019-05-25T13:45:23.806Z,21.24
2019-05-25T13:50:47.668Z,20.04
2019-05-25T13:56:12.586Z,20.20
2019-05-25T14:01:37.283Z,22.09
2019-05-25T14:07:01.326Z,22.11
2019-05-25T14:12:25.490Z,20.75
2019-05-25T14:17:49.379Z,20.27
2019-05-25T14:23:14.048Z,19.37
2019-05-25T14:28:37.680Z,18.91
2019-05-25T14:34:02.196Z,19.05
2019-05-25T14:39:26.869Z,19.54
2019-05-25T14:44:51.618Z,19.59
2019-05-25T14:50:17.349Z,19.52
2019-05-25T14:55:41.834Z,20.19
2019-05-25T15:01:05.769Z,19.47
2019-05-25T15:06:30.678Z,19.44
2019-05-25T15:11:54.632Z,19.17
2019-05-25T15:17:18.283Z,18.41
2019-05-25T15:22:46.140Z,18.67
2019-05-25T15:28:08.347Z,19.20
2019-05-25T15:33:32.874Z,18.49
2019-05-25T15:38:57.083Z,18.33
2019-05-25T15:44:21.909Z,18.77
2019-05-25T15:49:45.650Z,20.03
2019-05-25T15:55:10.684Z,19.89
2019-05-25T16:00:46.792Z,18.21
2019-05-25T16:06:11.115Z,19.19
2019-05-25T16:11:36.804Z,19.30
2019-05-25T16:17:00.471Z,18.70
2019-05-25T16:22:26.188Z,18.31
2019-05-25T16:27:50.496Z,17.75
2019-05-25T16:33:15.483Z,17.40
2019-05-25T16:38:40.182Z,16.66
2019-05-25T16:44:05.305Z,16.71
2019-05-25T16:49:30.182Z,16.79
2019-05-25T16:54:54.919Z,16.60
2019-05-25T17:00:26.917Z,16.08
2019-05-25T17:05:51.366Z,15.73
2019-05-25T17:11:15.492Z,15.80
2019-05-25T17:16:40.315Z,16.07
2019-05-25T17:22:04.802Z,16.21
2019-05-25T17:27:29.593Z,16.26
2019-05-25T17:32:54.760Z,16.35
2019-05-25T17:38:19.741Z,15.97
2019-05-25T17:43:44.512Z,15.57
2019-05-25T17:49:09.312Z,15.76
2019-05-25T17:54:33.009Z,15.63
2019-05-25T17:59:59.586Z,15.61
2019-05-25T18:05:23.331Z,15.57
2019-05-25T18:10:53.266Z,15.40
2019-05-25T18:16:13.348Z,15.27
2019-05-25T18:21:37.891Z,15.23
2019-05-25T18:27:01.761Z,15.08
2019-05-25T18:32:25.538Z,14.79
2019-05-25T18:37:49.943Z,14.46
2019-05-25T18:43:14.497Z,14.23
2019-05-25T18:48:39.430Z,14.01
2019-05-25T18:54:03.435Z,13.74
2019-05-25T18:59:27.293Z,13.55
2019-05-25T19:04:59.419Z,13.33
2019-05-25T19:10:17.732Z,13.24
2019-05-25T19:15:42.619Z,13.09
2019-05-25T19:21:06.529Z,12.84
2019-05-25T19:26:31.048Z,12.73
2019-05-25T19:31:55.065Z,12.67
2019-05-25T19:37:19.711Z,12.62
2019-05-25T19:42:44.193Z,12.75
2019-05-25T19:48:08.943Z,12.83
2019-05-25T19:53:32.619Z,12.75
2019-05-25T19:58:56.529Z,12.77
2019-05-25T20:04:21.411Z,12.57
2019-05-25T20:09:45.107Z,12.15
2019-05-25T20:15:11.124Z,11.80
2019-05-25T20:20:35.118Z,11.55
2019-05-25T20:25:59.660Z,11.39
2019-05-25T20:31:24.344Z,11.26
2019-05-25T20:36:48.005Z,10.98
2019-05-25T20:42:15.020Z,10.77
2019-05-25T20:47:38.469Z,10.71
2019-05-25T20:53:02.957Z,10.57
2019-05-25T20:58:27.853Z,10.47
2019-05-25T21:03:51.540Z,10.28
2019-05-25T21:09:15.498Z,10.10
2019-05-25T21:14:40.409Z,10.05
2019-05-25T21:20:05.015Z,9.89
2019-05-25T21:25:29.606Z,10.06
2019-05-25T21:30:54.070Z,9.88
2019-05-25T21:36:18.657Z,9.79
2019-05-25T21:41:43.082Z,9.73
2019-05-25T21:47:07.742Z,9.68
2019-05-25T21:52:31.348Z,9.63
2019-05-25T21:57:56.026Z,9.62
2019-05-25T22:03:20.258Z,9.47
2019-05-25T22:08:44.840Z,9.35
2019-05-25T22:14:09.602Z,9.25
2019-05-25T22:19:35.042Z,9.29
2019-05-25T22:24:59.791Z,9.33
2019-05-25T22:30:23.977Z,9.41
2019-05-25T22:35:47.968Z,9.34
2019-05-25T22:41:12.508Z,9.27
2019-05-25T22:46:36.699Z,9.22
2019-05-25T22:52:01.454Z,9.06
2019-05-25T22:57:27.362Z,8.92
2019-05-25T23:02:51.450Z,8.84
2019-05-25T23:08:16.218Z,8.79
2019-05-25T23:13:40.082Z,8.71
2019-05-25T23:19:04.635Z,8.53
2019-05-25T23:24:28.990Z,8.50
2019-05-25T23:29:52.808Z,8.43
2019-05-25T23:35:17.438Z,8.13
2019-05-25T23:40:41.931Z,7.95
2019-05-25T23:46:06.705Z,7.87
2019-05-25T23:51:31.256Z,7.88
2019-05-25T23:56:56.268Z,7.91
